sensor_id;sensor_type;location;lat;lon;timestamp;pressure;altitude;pressure_sealevel;temperature;humidity
65181;BME280;51765;48.112;11.766;2022-12-18T00:00:19;96480.72;;;-6.55;100.00
65181;BME280;51765;48.112;11.766;2022-12-18T00:02:46;96477.44;;;-6.57;100.00
65181;BME280;51765;48.112;11.766;2022-12-18T00:05:18;96482.06;;;-6.48;100.00
65181;BME280;51765;48.112;11.766;2022-12-18T00:07:47;96477.75;;;-6.63;100.00
65181;BME280;51765;48.112;11.766;2022-12-18T00:10:18;96477.22;;;-6.70;100.00
65181;BME280;51765;48.112;11.766;2022-12-18T00:12:50;96478.28;;;-6.74;100.00
65181;BME280;51765;48.112;11.766;2022-12-18T00:15:17;96479.16;;;-6.75;100.00
65181;BME280;51765;48.112;11.766;2022-12-18T00:17:48;96468.00;;;-6.73;100.00
65181;BME280;51765;48.112;11.766;2022-12-18T00:20:15;96470.22;;;-6.66;100.00
65181;BME280;51765;48.112;11.766;2022-12-18T00:22:50;96464.63;;;-6.73;100.00
65181;BME280;51765;48.112;11.766;2022-12-18T00:25:26;96474.16;;;-6.77;100.00
65181;BME280;51765;48.112;11.766;2022-12-18T00:27:54;96470.53;;;-6.73;100.00
65181;BME280;51765;48.112;11.766;2022-12-18T00:30:22;96468.97;;;-6.75;100.00
65181;BME280;51765;48.112;11.766;2022-12-18T00:32:55;96477.13;;;-6.68;100.00
65181;BME280;51765;48.112;11.766;2022-12-18T00:35:24;96472.03;;;-6.68;100.00
65181;BME280;51765;48.112;11.766;2022-12-18T00:37:51;96472.31;;;-6.75;100.00
65181;BME280;51765;48.112;11.766;2022-12-18T00:40:22;96476.78;;;-6.78;100.00
65181;BME280;51765;48.112;11.766;2022-12-18T00:43:00;96483.59;;;-6.79;100.00
65181;BME280;51765;48.112;11.766;2022-12-18T00:45:27;96489.19;;;-6.72;100.00
65181;BME280;51765;48.112;11.766;2022-12-18T00:47:56;96495.91;;;-6.87;100.00
65181;BME280;51765;48.112;11.766;2022-12-18T00:50:26;96503.75;;;-6.74;100.00
65181;BME280;51765;48.112;11.766;2022-12-18T00:52:59;96505.19;;;-6.68;100.00
65181;BME280;51765;48.112;11.766;2022-12-18T00:55:27;96499.91;;;-6.65;100.00
65181;BME280;51765;48.112;11.766;2022-12-18T00:57:58;96500.69;;;-6.63;100.00
65181;BME280;51765;48.112;11.766;2022-12-18T01:00:31;96500.28;;;-6.56;100.00
65181;BME280;51765;48.112;11.766;2022-12-18T01:03:03;96510.88;;;-6.63;100.00
65181;BME280;51765;48.112;11.766;2022-12-18T01:05:38;96509.22;;;-6.64;100.00
65181;BME280;51765;48.112;11.766;2022-12-18T01:08:20;96511.00;;;-6.66;100.00
65181;BME280;51765;48.112;11.766;2022-12-18T01:10:47;96502.63;;;-6.68;100.00
65181;BME280;51765;48.112;11.766;2022-12-18T01:13:18;96506.84;;;-6.67;100.00
65181;BME280;51765;48.112;11.766;2022-12-18T01:16:03;96502.19;;;-6.59;100.00
65181;BME280;51765;48.112;11.766;2022-12-18T01:18:34;96500.06;;;-6.51;100.00
65181;BME280;51765;48.112;11.766;2022-12-18T01:21:07;96510.66;;;-6.59;100.00
65181;BME280;51765;48.112;11.766;2022-12-18T01:23:36;96514.97;;;-6.61;100.00
65181;BME280;51765;48.112;11.766;2022-12-18T01:26:04;96516.97;;;-6.66;100.00
65181;BME280;51765;48.112;11.766;2022-12-18T01:28:44;96528.94;;;-6.50;100.00
65181;BME280;51765;48.112;11.766;2022-12-18T01:31:13;96529.22;;;-6.57;100.00
65181;BME280;51765;48.112;11.766;2022-12-18T01:33:45;96533.44;;;-6.56;100.00
65181;BME280;51765;48.112;11.766;2022-12-18T01:36:20;96542.06;;;-6.58;100.00
65181;BME280;51765;48.112;11.766;2022-12-18T01:38:50;96556.38;;;-6.56;100.00
65181;BME280;51765;48.112;11.766;2022-12-18T01:41:20;96560.13;;;-6.45;100.00
65181;BME280;51765;48.112;11.766;2022-12-18T01:43:53;96562.09;;;-6.50;100.00
65181;BME280;51765;48.112;11.766;2022-12-18T01:46:24;96571.53;;;-6.52;100.00
65181;BME280;51765;48.112;11.766;2022-12-18T01:48:57;96570.19;;;-6.60;100.00
65181;BME280;51765;48.112;11.766;2022-12-18T01:51:27;96568.78;;;-6.48;100.00
65181;BME280;51765;48.112;11.766;2022-12-18T01:54:01;96566.22;;;-6.48;100.00
65181;BME280;51765;48.112;11.766;2022-12-18T01:56:36;96550.16;;;-6.32;100.00
65181;BME280;51765;48.112;11.766;2022-12-18T01:59:07;96550.22;;;-6.34;100.00
65181;BME280;51765;48.112;11.766;2022-12-18T02:01:47;96547.66;;;-6.34;100.00
65181;BME280;51765;48.112;11.766;2022-12-18T02:04:21;96566.50;;;-6.37;100.00
65181;BME280;51765;48.112;11.766;2022-12-18T02:06:54;96566.34;;;-6.33;100.00
65181;BME280;51765;48.112;11.766;2022-12-18T02:09:33;96554.66;;;-6.38;100.00
65181;BME280;51765;48.112;11.766;2022-12-18T02:12:10;96547.09;;;-6.39;100.00
65181;BME280;51765;48.112;11.766;2022-12-18T02:14:47;96533.44;;;-6.38;100.00
65181;BME280;51765;48.112;11.766;2022-12-18T02:17:18;96534.97;;;-6.35;100.00
65181;BME280;51765;48.112;11.766;2022-12-18T02:19:54;96541.97;;;-6.39;100.00
65181;BME280;51765;48.112;11.766;2022-12-18T02:22:26;96541.13;;;-6.40;100.00
65181;BME280;51765;48.112;11.766;2022-12-18T02:25:05;96535.16;;;-6.39;100.00
65181;BME280;51765;48.112;11.766;2022-12-18T02:27:47;96542.97;;;-6.42;100.00
65181;BME280;51765;48.112;11.766;2022-12-18T02:30:27;96542.78;;;-6.39;100.00
65181;BME280;51765;48.112;11.766;2022-12-18T02:33:02;96537.09;;;-6.26;100.00
65181;BME280;51765;48.112;11.766;2022-12-18T02:35:36;96540.25;;;-6.39;100.00
65181;BME280;51765;48.112;11.766;2022-12-18T02:38:10;96530.19;;;-6.42;100.00
65181;BME280;51765;48.112;11.766;2022-12-18T02:40:47;96509.31;;;-6.66;100.00
65181;BME280;51765;48.112;11.766;2022-12-18T02:43:18;96535.91;;;-6.54;100.00
65181;BME280;51765;48.112;11.766;2022-12-18T02:45:46;96544.97;;;-6.48;100.00
65181;BME280;51765;48.112;11.766;2022-12-18T02:48:15;96541.31;;;-6.43;100.00
65181;BME280;51765;48.112;11.766;2022-12-18T02:50:44;96542.13;;;-6.42;100.00
65181;BME280;51765;48.112;11.766;2022-12-18T02:53:14;96533.66;;;-6.43;100.00
65181;BME280;51765;48.112;11.766;2022-12-18T02:55:59;96541.09;;;-6.38;100.00
65181;BME280;51765;48.112;11.766;2022-12-18T02:58:30;96531.63;;;-6.36;100.00
65181;BME280;51765;48.112;11.766;2022-12-18T03:01:07;96531.03;;;-6.41;100.00
65181;BME280;51765;48.112;11.766;2022-12-18T03:03:42;96526.44;;;-6.34;100.00
65181;BME280;51765;48.112;11.766;2022-12-18T03:06:18;96531.09;;;-6.43;100.00
65181;BME280;51765;48.112;11.766;2022-12-18T03:08:52;96537.69;;;-6.39;100.00
65181;BME280;51765;48.112;11.766;2022-12-18T03:11:24;96542.88;;;-6.40;100.00
65181;BME280;51765;48.112;11.766;2022-12-18T03:14:13;96542.22;;;-6.44;100.00
65181;BME280;51765;48.112;11.766;2022-12-18T03:16:45;96537.94;;;-6.43;100.00
65181;BME280;51765;48.112;11.766;2022-12-18T03:19:14;96543.03;;;-6.43;100.00
65181;BME280;51765;48.112;11.766;2022-12-18T03:21:50;96536.03;;;-6.40;100.00
65181;BME280;51765;48.112;11.766;2022-12-18T03:24:27;96533.50;;;-6.40;100.00
65181;BME280;51765;48.112;11.766;2022-12-18T03:26:57;96539.66;;;-6.44;100.00
65181;BME280;51765;48.112;11.766;2022-12-18T03:29:32;96537.16;;;-6.45;100.00
65181;BME280;51765;48.112;11.766;2022-12-18T03:32:07;96534.19;;;-6.53;100.00
65181;BME280;51765;48.112;11.766;2022-12-18T03:34:41;96531.66;;;-6.53;100.00
65181;BME280;51765;48.112;11.766;2022-12-18T03:37:22;96521.06;;;-6.46;100.00
65181;BME280;51765;48.112;11.766;2022-12-18T03:39:52;96525.47;;;-6.49;100.00
65181;BME280;51765;48.112;11.766;2022-12-18T03:42:26;96524.50;;;-6.47;100.00
65181;BME280;51765;48.112;11.766;2022-12-18T03:45:09;96530.28;;;-6.43;100.00
65181;BME280;51765;48.112;11.766;2022-12-18T03:47:39;96534.94;;;-6.51;100.00
65181;BME280;51765;48.112;11.766;2022-12-18T03:50:11;96541.91;;;-6.55;100.00
65181;BME280;51765;48.112;11.766;2022-12-18T03:52:44;96538.69;;;-6.59;100.00
65181;BME280;51765;48.112;11.766;2022-12-18T03:55:14;96549.88;;;-6.44;100.00
65181;BME280;51765;48.112;11.766;2022-12-18T03:57:50;96557.56;;;-6.45;100.00
65181;BME280;51765;48.112;11.766;2022-12-18T04:00:35;96547.53;;;-6.31;100.00
65181;BME280;51765;48.112;11.766;2022-12-18T04:03:09;96530.13;;;-6.40;100.00
65181;BME280;51765;48.112;11.766;2022-12-18T04:05:46;96538.81;;;-6.44;100.00
65181;BME280;51765;48.112;11.766;2022-12-18T04:08:21;96532.84;;;-6.43;100.00
65181;BME280;51765;48.112;11.766;2022-12-18T04:11:03;96541.78;;;-6.52;100.00
65181;BME280;51765;48.112;11.766;2022-12-18T04:13:32;96529.53;;;-6.45;100.00
65181;BME280;51765;48.112;11.766;2022-12-18T04:16:13;96540.78;;;-6.49;100.00
65181;BME280;51765;48.112;11.766;2022-12-18T04:19:05;96550.06;;;-6.48;100.00
65181;BME280;51765;48.112;11.766;2022-12-18T04:21:44;96556.75;;;-6.46;100.00
65181;BME280;51765;48.112;11.766;2022-12-18T04:24:16;96553.41;;;-6.46;100.00
65181;BME280;51765;48.112;11.766;2022-12-18T04:27:04;96548.06;;;-6.42;100.00
65181;BME280;51765;48.112;11.766;2022-12-18T04:29:42;96553.69;;;-6.35;100.00
65181;BME280;51765;48.112;11.766;2022-12-18T04:32:12;96541.53;;;-6.47;100.00
65181;BME280;51765;48.112;11.766;2022-12-18T04:34:44;96549.25;;;-6.49;100.00
65181;BME280;51765;48.112;11.766;2022-12-18T04:37:16;96548.50;;;-6.51;100.00
65181;BME280;51765;48.112;11.766;2022-12-18T04:39:46;96554.13;;;-6.44;100.00
65181;BME280;51765;48.112;11.766;2022-12-18T04:42:28;96550.91;;;-6.48;100.00
65181;BME280;51765;48.112;11.766;2022-12-18T04:44:57;96543.56;;;-6.37;100.00
65181;BME280;51765;48.112;11.766;2022-12-18T04:47:37;96544.91;;;-6.29;100.00
65181;BME280;51765;48.112;11.766;2022-12-18T04:50:06;96552.72;;;-6.32;100.00
65181;BME280;51765;48.112;11.766;2022-12-18T04:52:40;96559.69;;;-6.18;100.00
65181;BME280;51765;48.112;11.766;2022-12-18T04:55:12;96557.34;;;-6.23;100.00
65181;BME280;51765;48.112;11.766;2022-12-18T04:57:40;96562.06;;;-6.33;100.00
65181;BME280;51765;48.112;11.766;2022-12-18T05:00:09;96577.53;;;-6.36;100.00
65181;BME280;51765;48.112;11.766;2022-12-18T05:02:46;96572.19;;;-6.31;100.00
65181;BME280;51765;48.112;11.766;2022-12-18T05:05:16;96562.69;;;-6.28;100.00
65181;BME280;51765;48.112;11.766;2022-12-18T05:07:45;96571.13;;;-6.27;100.00
65181;BME280;51765;48.112;11.766;2022-12-18T05:10:18;96580.06;;;-6.36;100.00
65181;BME280;51765;48.112;11.766;2022-12-18T05:12:45;96577.91;;;-6.26;100.00
65181;BME280;51765;48.112;11.766;2022-12-18T05:15:30;96574.47;;;-6.25;100.00
65181;BME280;51765;48.112;11.766;2022-12-18T05:20:48;96592.22;;;-6.24;100.00
65181;BME280;51765;48.112;11.766;2022-12-18T05:23:19;96595.16;;;-6.14;100.00
65181;BME280;51765;48.112;11.766;2022-12-18T05:25:54;96591.19;;;-6.20;100.00
65181;BME280;51765;48.112;11.766;2022-12-18T05:28:24;96592.47;;;-6.28;100.00
65181;BME280;51765;48.112;11.766;2022-12-18T05:30:52;96580.38;;;-6.25;100.00
65181;BME280;51765;48.112;11.766;2022-12-18T05:36:07;96585.25;;;-6.38;100.00
65181;BME280;51765;48.112;11.766;2022-12-18T05:38:38;96585.78;;;-6.31;100.00
65181;BME280;51765;48.112;11.766;2022-12-18T05:41:07;96592.50;;;-6.30;100.00
65181;BME280;51765;48.112;11.766;2022-12-18T05:43:35;96597.13;;;-6.37;100.00
65181;BME280;51765;48.112;11.766;2022-12-18T05:46:11;96605.16;;;-6.27;100.00
65181;BME280;51765;48.112;11.766;2022-12-18T05:48:40;96603.66;;;-6.31;100.00
65181;BME280;51765;48.112;11.766;2022-12-18T05:51:09;96598.22;;;-6.25;100.00
65181;BME280;51765;48.112;11.766;2022-12-18T05:53:42;96596.56;;;-6.26;100.00
65181;BME280;51765;48.112;11.766;2022-12-18T05:56:11;96589.38;;;-6.35;100.00
65181;BME280;51765;48.112;11.766;2022-12-18T05:58:40;96595.31;;;-6.34;100.00
65181;BME280;51765;48.112;11.766;2022-12-18T06:01:09;96608.13;;;-6.53;100.00
65181;BME280;51765;48.112;11.766;2022-12-18T06:03:39;96615.56;;;-6.49;100.00
65181;BME280;51765;48.112;11.766;2022-12-18T06:06:13;96616.28;;;-6.47;100.00
65181;BME280;51765;48.112;11.766;2022-12-18T06:08:40;96619.38;;;-6.40;100.00
65181;BME280;51765;48.112;11.766;2022-12-18T06:11:08;96618.38;;;-6.55;100.00
65181;BME280;51765;48.112;11.766;2022-12-18T06:13:34;96612.41;;;-6.54;100.00
65181;BME280;51765;48.112;11.766;2022-12-18T06:16:02;96611.59;;;-6.55;100.00
65181;BME280;51765;48.112;11.766;2022-12-18T06:18:29;96615.09;;;-6.57;100.00
65181;BME280;51765;48.112;11.766;2022-12-18T06:20:57;96619.00;;;-6.50;100.00
65181;BME280;51765;48.112;11.766;2022-12-18T06:23:25;96617.50;;;-6.54;100.00
65181;BME280;51765;48.112;11.766;2022-12-18T06:25:54;96618.69;;;-6.61;100.00
65181;BME280;51765;48.112;11.766;2022-12-18T06:28:26;96616.53;;;-6.51;100.00
65181;BME280;51765;48.112;11.766;2022-12-18T06:30:56;96618.53;;;-6.58;100.00
65181;BME280;51765;48.112;11.766;2022-12-18T06:33:33;96617.72;;;-6.59;100.00
65181;BME280;51765;48.112;11.766;2022-12-18T06:36:03;96626.03;;;-6.55;100.00
65181;BME280;51765;48.112;11.766;2022-12-18T06:38:36;96625.22;;;-6.56;100.00
65181;BME280;51765;48.112;11.766;2022-12-18T06:41:08;96628.53;;;-6.53;100.00
65181;BME280;51765;48.112;11.766;2022-12-18T06:43:39;96623.22;;;-6.49;100.00
65181;BME280;51765;48.112;11.766;2022-12-18T06:46:09;96630.00;;;-6.67;100.00
65181;BME280;51765;48.112;11.766;2022-12-18T06:48:37;96639.69;;;-6.56;100.00
65181;BME280;51765;48.112;11.766;2022-12-18T06:51:04;96633.25;;;-6.46;100.00
65181;BME280;51765;48.112;11.766;2022-12-18T06:53:32;96638.78;;;-6.55;100.00
65181;BME280;51765;48.112;11.766;2022-12-18T06:56:06;96648.56;;;-6.46;100.00
65181;BME280;51765;48.112;11.766;2022-12-18T06:58:40;96646.22;;;-6.50;100.00
65181;BME280;51765;48.112;11.766;2022-12-18T07:01:08;96648.31;;;-6.59;100.00
65181;BME280;51765;48.112;11.766;2022-12-18T07:03:35;96644.88;;;-6.58;100.00
65181;BME280;51765;48.112;11.766;2022-12-18T07:06:02;96650.63;;;-6.54;100.00
65181;BME280;51765;48.112;11.766;2022-12-18T07:08:29;96656.59;;;-6.53;100.00
65181;BME280;51765;48.112;11.766;2022-12-18T07:10:58;96659.38;;;-6.41;100.00
65181;BME280;51765;48.112;11.766;2022-12-18T07:13:32;96665.66;;;-6.48;100.00
65181;BME280;51765;48.112;11.766;2022-12-18T07:16:04;96676.84;;;-6.50;100.00
65181;BME280;51765;48.112;11.766;2022-12-18T07:18:45;96673.16;;;-6.45;100.00
65181;BME280;51765;48.112;11.766;2022-12-18T07:21:25;96677.41;;;-6.45;100.00
65181;BME280;51765;48.112;11.766;2022-12-18T07:23:52;96672.31;;;-6.45;100.00
65181;BME280;51765;48.112;11.766;2022-12-18T07:26:21;96677.97;;;-6.39;100.00
65181;BME280;51765;48.112;11.766;2022-12-18T07:28:49;96680.44;;;-6.37;100.00
65181;BME280;51765;48.112;11.766;2022-12-18T07:31:19;96685.38;;;-6.34;100.00
65181;BME280;51765;48.112;11.766;2022-12-18T07:33:50;96679.50;;;-6.17;100.00
65181;BME280;51765;48.112;11.766;2022-12-18T07:36:17;96684.44;;;-6.14;100.00
65181;BME280;51765;48.112;11.766;2022-12-18T07:38:46;96676.19;;;-6.19;100.00
65181;BME280;51765;48.112;11.766;2022-12-18T07:41:13;96691.88;;;-6.27;100.00
65181;BME280;51765;48.112;11.766;2022-12-18T07:43:47;96687.50;;;-6.25;100.00
65181;BME280;51765;48.112;11.766;2022-12-18T07:46:25;96682.06;;;-6.17;100.00
65181;BME280;51765;48.112;11.766;2022-12-18T07:48:56;96677.84;;;-6.18;100.00
65181;BME280;51765;48.112;11.766;2022-12-18T07:51:28;96679.56;;;-6.01;100.00
65181;BME280;51765;48.112;11.766;2022-12-18T07:54:00;96676.94;;;-5.99;100.00
65181;BME280;51765;48.112;11.766;2022-12-18T07:56:29;96669.78;;;-5.93;100.00
65181;BME280;51765;48.112;11.766;2022-12-18T07:59:08;96673.69;;;-5.86;100.00
65181;BME280;51765;48.112;11.766;2022-12-18T08:01:44;96672.63;;;-5.81;100.00
65181;BME280;51765;48.112;11.766;2022-12-18T08:04:13;96674.28;;;-5.80;100.00
65181;BME280;51765;48.112;11.766;2022-12-18T08:06:52;96677.50;;;-5.77;100.00
65181;BME280;51765;48.112;11.766;2022-12-18T08:09:20;96659.31;;;-5.71;100.00
65181;BME280;51765;48.112;11.766;2022-12-18T08:11:47;96667.28;;;-5.77;100.00
65181;BME280;51765;48.112;11.766;2022-12-18T08:14:15;96659.84;;;-5.81;100.00
65181;BME280;51765;48.112;11.766;2022-12-18T08:16:44;96670.69;;;-5.76;100.00
65181;BME280;51765;48.112;11.766;2022-12-18T08:19:15;96679.31;;;-5.79;100.00
65181;BME280;51765;48.112;11.766;2022-12-18T08:21:53;96683.56;;;-5.79;100.00
65181;BME280;51765;48.112;11.766;2022-12-18T08:24:25;96691.22;;;-5.79;100.00
65181;BME280;51765;48.112;11.766;2022-12-18T08:26:58;96690.53;;;-5.65;100.00
65181;BME280;51765;48.112;11.766;2022-12-18T08:29:29;96688.75;;;-5.63;100.00
65181;BME280;51765;48.112;11.766;2022-12-18T08:32:03;96691.19;;;-5.44;100.00
65181;BME280;51765;48.112;11.766;2022-12-18T08:34:38;96699.50;;;-5.57;100.00
65181;BME280;51765;48.112;11.766;2022-12-18T08:37:10;96689.63;;;-5.47;100.00
65181;BME280;51765;48.112;11.766;2022-12-18T08:39:41;96694.25;;;-5.38;100.00
65181;BME280;51765;48.112;11.766;2022-12-18T08:42:13;96700.03;;;-5.34;100.00
65181;BME280;51765;48.112;11.766;2022-12-18T08:45:00;96688.16;;;-5.35;100.00
65181;BME280;51765;48.112;11.766;2022-12-18T08:47:35;96686.34;;;-5.33;100.00
65181;BME280;51765;48.112;11.766;2022-12-18T08:50:06;96695.72;;;-5.49;100.00
65181;BME280;51765;48.112;11.766;2022-12-18T08:52:36;96705.50;;;-5.58;100.00
65181;BME280;51765;48.112;11.766;2022-12-18T08:55:04;96684.72;;;-5.34;100.00
65181;BME280;51765;48.112;11.766;2022-12-18T08:57:32;96690.94;;;-5.06;100.00
65181;BME280;51765;48.112;11.766;2022-12-18T09:00:02;96689.38;;;-4.93;100.00
65181;BME280;51765;48.112;11.766;2022-12-18T09:02:36;96689.22;;;-4.90;100.00
65181;BME280;51765;48.112;11.766;2022-12-18T09:05:07;96691.03;;;-4.92;100.00
65181;BME280;51765;48.112;11.766;2022-12-18T09:07:35;96696.47;;;-4.98;100.00
65181;BME280;51765;48.112;11.766;2022-12-18T09:10:02;96702.94;;;-5.24;100.00
65181;BME280;51765;48.112;11.766;2022-12-18T09:12:32;96703.72;;;-5.06;100.00
65181;BME280;51765;48.112;11.766;2022-12-18T09:15:01;96700.06;;;-5.18;100.00
65181;BME280;51765;48.112;11.766;2022-12-18T09:17:28;96699.75;;;-5.12;100.00
65181;BME280;51765;48.112;11.766;2022-12-18T09:20:22;96713.78;;;-4.87;100.00
65181;BME280;51765;48.112;11.766;2022-12-18T09:22:53;96698.88;;;-4.47;100.00
65181;BME280;51765;48.112;11.766;2022-12-18T09:25:25;96694.41;;;-4.43;100.00
65181;BME280;51765;48.112;11.766;2022-12-18T09:28:01;96686.56;;;-4.40;100.00
65181;BME280;51765;48.112;11.766;2022-12-18T09:30:28;96679.13;;;-4.45;100.00
65181;BME280;51765;48.112;11.766;2022-12-18T09:32:58;96685.53;;;-4.22;100.00
65181;BME280;51765;48.112;11.766;2022-12-18T09:35:28;96683.16;;;-4.41;100.00
65181;BME280;51765;48.112;11.766;2022-12-18T09:41:34;96702.41;;;-4.50;100.00
65181;BME280;51765;48.112;11.766;2022-12-18T09:44:10;96694.97;;;-4.38;100.00
65181;BME280;51765;48.112;11.766;2022-12-18T09:46:42;96692.41;;;-4.38;100.00
65181;BME280;51765;48.112;11.766;2022-12-18T09:49:11;96702.72;;;-4.24;100.00
65181;BME280;51765;48.112;11.766;2022-12-18T09:51:46;96700.63;;;-4.17;100.00
65181;BME280;51765;48.112;11.766;2022-12-18T09:54:18;96686.28;;;-3.89;100.00
65181;BME280;51765;48.112;11.766;2022-12-18T10:00:23;96684.03;;;-4.10;100.00
65181;BME280;51765;48.112;11.766;2022-12-18T10:02:59;96669.16;;;-3.89;100.00
65181;BME280;51765;48.112;11.766;2022-12-18T10:05:37;96669.34;;;-3.92;100.00
65181;BME280;51765;48.112;11.766;2022-12-18T10:08:08;96677.91;;;-4.07;100.00
65181;BME280;51765;48.112;11.766;2022-12-18T10:10:40;96667.22;;;-4.30;100.00
65181;BME280;51765;48.112;11.766;2022-12-18T10:13:15;96663.50;;;-4.24;100.00
65181;BME280;51765;48.112;11.766;2022-12-18T10:16:04;96661.94;;;-4.27;100.00
65181;BME280;51765;48.112;11.766;2022-12-18T10:18:39;96653.53;;;-4.29;100.00
65181;BME280;51765;48.112;11.766;2022-12-18T10:21:13;96648.97;;;-3.93;100.00
65181;BME280;51765;48.112;11.766;2022-12-18T10:23:50;96651.63;;;-3.81;100.00
65181;BME280;51765;48.112;11.766;2022-12-18T10:26:22;96642.22;;;-3.51;100.00
65181;BME280;51765;48.112;11.766;2022-12-18T10:28:51;96638.22;;;-3.27;100.00
65181;BME280;51765;48.112;11.766;2022-12-18T10:31:25;96645.59;;;-3.51;100.00
65181;BME280;51765;48.112;11.766;2022-12-18T10:33:54;96637.38;;;-3.70;100.00
65181;BME280;51765;48.112;11.766;2022-12-18T10:36:23;96637.00;;;-3.50;100.00
65181;BME280;51765;48.112;11.766;2022-12-18T10:38:55;96637.56;;;-3.30;100.00
65181;BME280;51765;48.112;11.766;2022-12-18T10:41:44;96628.34;;;-3.62;100.00
65181;BME280;51765;48.112;11.766;2022-12-18T10:44:18;96630.84;;;-4.05;100.00
65181;BME280;51765;48.112;11.766;2022-12-18T10:46:49;96631.13;;;-3.95;100.00
65181;BME280;51765;48.112;11.766;2022-12-18T10:49:27;96623.16;;;-3.90;100.00
65181;BME280;51765;48.112;11.766;2022-12-18T10:52:04;96631.63;;;-3.74;100.00
65181;BME280;51765;48.112;11.766;2022-12-18T10:54:34;96638.09;;;-3.54;100.00
65181;BME280;51765;48.112;11.766;2022-12-18T10:57:17;96634.66;;;-3.53;100.00
65181;BME280;51765;48.112;11.766;2022-12-18T10:59:51;96641.56;;;-3.69;100.00
65181;BME280;51765;48.112;11.766;2022-12-18T11:02:26;96639.28;;;-3.88;100.00
65181;BME280;51765;48.112;11.766;2022-12-18T11:04:55;96629.13;;;-3.90;100.00
65181;BME280;51765;48.112;11.766;2022-12-18T11:07:22;96639.72;;;-3.82;100.00
65181;BME280;51765;48.112;11.766;2022-12-18T11:10:02;96636.94;;;-3.63;100.00
65181;BME280;51765;48.112;11.766;2022-12-18T11:12:32;96635.09;;;-3.46;100.00
65181;BME280;51765;48.112;11.766;2022-12-18T11:14:59;96635.00;;;-3.45;100.00
65181;BME280;51765;48.112;11.766;2022-12-18T11:17:27;96637.94;;;-3.22;100.00
65181;BME280;51765;48.112;11.766;2022-12-18T11:19:57;96641.31;;;-3.07;100.00
65181;BME280;51765;48.112;11.766;2022-12-18T11:22:24;96629.28;;;-2.65;100.00
65181;BME280;51765;48.112;11.766;2022-12-18T11:24:53;96636.44;;;-2.70;100.00
65181;BME280;51765;48.112;11.766;2022-12-18T11:27:24;96642.72;;;-2.47;100.00
65181;BME280;51765;48.112;11.766;2022-12-18T11:29:51;96637.28;;;-2.42;100.00
65181;BME280;51765;48.112;11.766;2022-12-18T11:32:23;96637.19;;;-2.41;100.00
65181;BME280;51765;48.112;11.766;2022-12-18T11:34:58;96638.78;;;-2.52;100.00
65181;BME280;51765;48.112;11.766;2022-12-18T11:37:26;96638.06;;;-2.54;100.00
65181;BME280;51765;48.112;11.766;2022-12-18T11:39:54;96642.41;;;-2.69;100.00
65181;BME280;51765;48.112;11.766;2022-12-18T11:42:25;96645.19;;;-2.87;100.00
65181;BME280;51765;48.112;11.766;2022-12-18T11:44:54;96636.00;;;-2.77;100.00
65181;BME280;51765;48.112;11.766;2022-12-18T11:47:26;96637.53;;;-3.16;100.00
65181;BME280;51765;48.112;11.766;2022-12-18T11:49:59;96629.81;;;-2.87;100.00
65181;BME280;51765;48.112;11.766;2022-12-18T11:52:28;96618.56;;;-2.44;100.00
65181;BME280;51765;48.112;11.766;2022-12-18T11:55:00;96616.28;;;-2.21;100.00
65181;BME280;51765;48.112;11.766;2022-12-18T11:57:31;96613.81;;;-2.23;100.00
65181;BME280;51765;48.112;11.766;2022-12-18T12:00:04;96618.91;;;-2.36;100.00
65181;BME280;51765;48.112;11.766;2022-12-18T12:02:47;96619.31;;;-2.42;100.00
65181;BME280;51765;48.112;11.766;2022-12-18T12:05:36;96610.81;;;-2.30;100.00
65181;BME280;51765;48.112;11.766;2022-12-18T12:08:14;96609.88;;;-2.29;100.00
65181;BME280;51765;48.112;11.766;2022-12-18T12:10:48;96616.34;;;-2.36;100.00
65181;BME280;51765;48.112;11.766;2022-12-18T12:13:26;96616.16;;;-2.60;100.00
65181;BME280;51765;48.112;11.766;2022-12-18T12:16:00;96615.00;;;-2.29;100.00
65181;BME280;51765;48.112;11.766;2022-12-18T12:18:31;96620.31;;;-2.17;100.00
65181;BME280;51765;48.112;11.766;2022-12-18T12:21:02;96607.88;;;-2.11;100.00
65181;BME280;51765;48.112;11.766;2022-12-18T12:23:37;96601.06;;;-2.25;100.00
65181;BME280;51765;48.112;11.766;2022-12-18T12:26:13;96601.66;;;-2.47;100.00
65181;BME280;51765;48.112;11.766;2022-12-18T12:28:49;96602.56;;;-2.48;100.00
65181;BME280;51765;48.112;11.766;2022-12-18T12:31:31;96610.69;;;-2.41;100.00
65181;BME280;51765;48.112;11.766;2022-12-18T12:34:05;96601.94;;;-2.79;100.00
65181;BME280;51765;48.112;11.766;2022-12-18T12:36:39;96597.66;;;-2.93;100.00
65181;BME280;51765;48.112;11.766;2022-12-18T12:39:10;96594.44;;;-3.23;100.00
65181;BME280;51765;48.112;11.766;2022-12-18T12:41:39;96589.78;;;-3.17;100.00
65181;BME280;51765;48.112;11.766;2022-12-18T12:44:30;96584.28;;;-3.25;100.00
65181;BME280;51765;48.112;11.766;2022-12-18T12:47:00;96580.53;;;-3.19;100.00
65181;BME280;51765;48.112;11.766;2022-12-18T12:49:29;96579.91;;;-3.37;100.00
65181;BME280;51765;48.112;11.766;2022-12-18T12:51:58;96589.63;;;-3.57;100.00
65181;BME280;51765;48.112;11.766;2022-12-18T12:54:29;96592.63;;;-3.79;100.00
65181;BME280;51765;48.112;11.766;2022-12-18T12:56:59;96582.19;;;-3.76;100.00
65181;BME280;51765;48.112;11.766;2022-12-18T12:59:34;96588.06;;;-3.74;100.00
65181;BME280;51765;48.112;11.766;2022-12-18T13:02:10;96598.50;;;-3.77;100.00
65181;BME280;51765;48.112;11.766;2022-12-18T13:04:43;96598.22;;;-3.72;100.00
65181;BME280;51765;48.112;11.766;2022-12-18T13:07:13;96597.22;;;-3.84;100.00
65181;BME280;51765;48.112;11.766;2022-12-18T13:12:23;96596.66;;;-3.61;100.00
65181;BME280;51765;48.112;11.766;2022-12-18T13:15:22;96608.06;;;-3.23;100.00
65181;BME280;51765;48.112;11.766;2022-12-18T13:17:51;96605.81;;;-2.86;100.00
65181;BME280;51765;48.112;11.766;2022-12-18T13:20:35;96602.84;;;-2.80;100.00
65181;BME280;51765;48.112;11.766;2022-12-18T13:23:19;96597.88;;;-2.68;100.00